sensor_id;sensor_type;location;lat;lon;timestamp;pressure;altitude;pressure_sealevel;temperature;humidity
5595;BME280;1003;48.002;7.788;2023-01-08T00:01:17;99092.53;;;5.31;100.00
5595;BME280;1003;48.002;7.788;2023-01-08T00:03:44;99095.84;;;5.33;100.00
5595;BME280;1003;48.002;7.788;2023-01-08T00:06:13;99085.97;;;5.39;100.00
5595;BME280;1003;48.002;7.788;2023-01-08T00:08:41;99082.66;;;5.41;100.00
5595;BME280;1003;48.002;7.788;2023-01-08T00:11:09;99066.06;;;5.45;100.00
5595;BME280;1003;48.002;7.788;2023-01-08T00:13:36;99049.50;;;5.53;100.00
5595;BME280;1003;48.002;7.788;2023-01-08T00:16:06;99032.13;;;5.61;100.00
5595;BME280;1003;48.002;7.788;2023-01-08T00:18:35;99033.09;;;5.76;100.00
5595;BME280;1003;48.002;7.788;2023-01-08T00:21:03;99038.06;;;5.79;100.00
5595;BME280;1003;48.002;7.788;2023-01-08T00:23:31;99019.81;;;5.82;100.00
5595;BME280;1003;48.002;7.788;2023-01-08T00:26:00;99024.81;;;5.84;100.00
5595;BME280;1003;48.002;7.788;2023-01-08T00:28:27;99026.50;;;5.91;100.00
5595;BME280;1003;48.002;7.788;2023-01-08T00:30:54;99020.00;;;6.08;100.00
5595;BME280;1003;48.002;7.788;2023-01-08T00:33:21;99018.44;;;6.30;100.00
5595;BME280;1003;48.002;7.788;2023-01-08T00:35:50;99003.50;;;6.36;100.00
5595;BME280;1003;48.002;7.788;2023-01-08T00:38:17;98989.38;;;6.50;100.00
5595;BME280;1003;48.002;7.788;2023-01-08T00:40:44;98981.94;;;6.56;100.00
5595;BME280;1003;48.002;7.788;2023-01-08T00:43:11;98968.63;;;6.62;100.00
5595;BME280;1003;48.002;7.788;2023-01-08T00:45:38;98967.00;;;6.73;100.00
5595;BME280;1003;48.002;7.788;2023-01-08T00:48:05;98953.66;;;6.73;100.00
5595;BME280;1003;48.002;7.788;2023-01-08T00:50:32;98930.34;;;6.86;100.00
5595;BME280;1003;48.002;7.788;2023-01-08T00:53:01;98918.72;;;6.94;100.00
5595;BME280;1003;48.002;7.788;2023-01-08T00:55:29;98900.38;;;6.97;100.00
5595;BME280;1003;48.002;7.788;2023-01-08T00:57:56;98894.56;;;7.05;100.00
5595;BME280;1003;48.002;7.788;2023-01-08T01:00:23;98872.88;;;7.09;100.00
5595;BME280;1003;48.002;7.788;2023-01-08T01:02:50;98853.75;;;6.97;100.00
5595;BME280;1003;48.002;7.788;2023-01-08T01:05:18;98857.09;;;7.01;100.00
5595;BME280;1003;48.002;7.788;2023-01-08T01:07:45;98844.56;;;7.08;100.00
5595;BME280;1003;48.002;7.788;2023-01-08T01:10:15;98830.41;;;7.17;100.00
5595;BME280;1003;48.002;7.788;2023-01-08T01:12:43;98816.22;;;7.22;100.00
5595;BME280;1003;48.002;7.788;2023-01-08T01:15:13;98801.22;;;7.28;100.00
5595;BME280;1003;48.002;7.788;2023-01-08T01:17:42;98791.19;;;7.31;100.00
5595;BME280;1003;48.002;7.788;2023-01-08T01:20:13;98768.69;;;7.31;100.00
5595;BME280;1003;48.002;7.788;2023-01-08T01:22:41;98753.66;;;7.37;100.00
5595;BME280;1003;48.002;7.788;2023-01-08T01:25:09;98737.84;;;7.36;100.00
5595;BME280;1003;48.002;7.788;2023-01-08T01:27:37;98714.47;;;7.42;100.00
5595;BME280;1003;48.002;7.788;2023-01-08T01:30:06;98696.22;;;7.34;100.00
5595;BME280;1003;48.002;7.788;2023-01-08T01:32:34;98682.09;;;7.24;100.00
5595;BME280;1003;48.002;7.788;2023-01-08T01:35:01;98666.31;;;7.13;100.00
5595;BME280;1003;48.002;7.788;2023-01-08T01:37:29;98655.50;;;7.04;100.00
5595;BME280;1003;48.002;7.788;2023-01-08T01:39:56;98645.53;;;6.98;100.00
5595;BME280;1003;48.002;7.788;2023-01-08T01:42:23;98648.88;;;6.97;100.00
5595;BME280;1003;48.002;7.788;2023-01-08T01:45:18;98628.06;;;7.01;100.00
5595;BME280;1003;48.002;7.788;2023-01-08T01:47:53;98613.03;;;7.04;100.00
5595;BME280;1003;48.002;7.788;2023-01-08T01:50:26;98598.88;;;7.11;100.00
5595;BME280;1003;48.002;7.788;2023-01-08T01:53:00;98576.31;;;7.16;100.00
5595;BME280;1003;48.002;7.788;2023-01-08T01:55:30;98549.63;;;7.24;100.00
5595;BME280;1003;48.002;7.788;2023-01-08T01:58:04;98532.13;;;7.24;100.00
5595;BME280;1003;48.002;7.788;2023-01-08T02:00:37;98505.47;;;7.24;100.00
5595;BME280;1003;48.002;7.788;2023-01-08T02:03:04;98493.78;;;7.26;100.00
5595;BME280;1003;48.002;7.788;2023-01-08T02:05:37;98489.47;;;7.42;100.00
5595;BME280;1003;48.002;7.788;2023-01-08T02:08:12;98472.78;;;7.47;100.00
5595;BME280;1003;48.002;7.788;2023-01-08T02:10:50;98461.88;;;7.53;100.00
5595;BME280;1003;48.002;7.788;2023-01-08T02:13:25;98462.75;;;7.53;100.00
5595;BME280;1003;48.002;7.788;2023-01-08T02:15:58;98464.31;;;7.62;100.00
5595;BME280;1003;48.002;7.788;2023-01-08T02:18:33;98452.56;;;7.69;100.00
5595;BME280;1003;48.002;7.788;2023-01-08T02:21:08;98430.88;;;7.71;100.00
5595;BME280;1003;48.002;7.788;2023-01-08T02:23:45;98428.34;;;7.72;100.00
5595;BME280;1003;48.002;7.788;2023-01-08T02:26:23;98415.81;;;7.74;100.00
5595;BME280;1003;48.002;7.788;2023-01-08T02:28:59;98414.19;;;7.71;100.00
5595;BME280;1003;48.002;7.788;2023-01-08T02:31:30;98403.31;;;7.75;100.00
5595;BME280;1003;48.002;7.788;2023-01-08T02:33:57;98395.81;;;7.75;100.00
5595;BME280;1003;48.002;7.788;2023-01-08T02:36:37;98387.44;;;7.78;100.00
5595;BME280;1003;48.002;7.788;2023-01-08T02:39:43;98379.84;;;7.87;100.00
5595;BME280;1003;48.002;7.788;2023-01-08T02:42:23;98362.31;;;7.87;100.00
5595;BME280;1003;48.002;7.788;2023-01-08T02:44:58;98363.94;;;7.89;100.00
5595;BME280;1003;48.002;7.788;2023-01-08T02:47:35;98358.88;;;7.94;100.00
5595;BME280;1003;48.002;7.788;2023-01-08T02:50:13;98331.25;;;8.03;100.00
5595;BME280;1003;48.002;7.788;2023-01-08T02:52:51;98360.59;;;7.92;100.00
5595;BME280;1003;48.002;7.788;2023-01-08T02:55:22;98387.25;;;7.93;100.00
5595;BME280;1003;48.002;7.788;2023-01-08T02:57:52;98414.75;;;7.95;100.00
5595;BME280;1003;48.002;7.788;2023-01-08T03:00:21;98410.53;;;8.00;100.00
5595;BME280;1003;48.002;7.788;2023-01-08T03:02:50;98396.19;;;8.14;100.00
5595;BME280;1003;48.002;7.788;2023-01-08T03:05:27;98382.66;;;8.26;100.00
5595;BME280;1003;48.002;7.788;2023-01-08T03:07:55;98350.78;;;8.40;100.00
5595;BME280;1003;48.002;7.788;2023-01-08T03:10:27;98339.72;;;8.53;100.00
5595;BME280;1003;48.002;7.788;2023-01-08T03:13:00;98333.88;;;8.56;100.00
5595;BME280;1003;48.002;7.788;2023-01-08T03:15:33;98352.19;;;8.58;100.00
5595;BME280;1003;48.002;7.788;2023-01-08T03:18:08;98395.56;;;8.61;100.00
5595;BME280;1003;48.002;7.788;2023-01-08T03:20:37;98442.34;;;8.58;100.00
5595;BME280;1003;48.002;7.788;2023-01-08T03:23:09;98479.06;;;8.59;100.00
5595;BME280;1003;48.002;7.788;2023-01-08T03:25:40;98521.75;;;8.51;100.00
5595;BME280;1003;48.002;7.788;2023-01-08T03:28:17;98562.72;;;8.46;100.00
5595;BME280;1003;48.002;7.788;2023-01-08T03:30:48;98608.63;;;8.45;100.00
5595;BME280;1003;48.002;7.788;2023-01-08T03:33:18;98639.59;;;8.37;100.00
5595;BME280;1003;48.002;7.788;2023-01-08T03:35:50;98680.50;;;8.32;100.00
5595;BME280;1003;48.002;7.788;2023-01-08T03:38:25;98722.25;;;8.30;100.00
5595;BME280;1003;48.002;7.788;2023-01-08T03:40:56;98749.00;;;8.23;100.00
5595;BME280;1003;48.002;7.788;2023-01-08T03:43:28;98800.00;;;8.10;100.00
5595;BME280;1003;48.002;7.788;2023-01-08T03:46:00;98869.22;;;8.12;100.00
5595;BME280;1003;48.002;7.788;2023-01-08T03:48:31;98918.50;;;8.03;100.00
5595;BME280;1003;48.002;7.788;2023-01-08T03:50:59;98961.06;;;8.03;100.00
5595;BME280;1003;48.002;7.788;2023-01-08T03:53:27;98981.09;;;7.90;100.00
5595;BME280;1003;48.002;7.788;2023-01-08T03:55:55;99004.47;;;7.91;100.00
5595;BME280;1003;48.002;7.788;2023-01-08T03:58:23;99037.81;;;7.90;100.00
5595;BME280;1003;48.002;7.788;2023-01-08T04:00:51;99072.81;;;8.16;100.00
5595;BME280;1003;48.002;7.788;2023-01-08T04:03:18;99073.59;;;8.23;100.00
5595;BME280;1003;48.002;7.788;2023-01-08T04:05:45;99077.00;;;8.00;100.00
5595;BME280;1003;48.002;7.788;2023-01-08T04:08:12;99076.19;;;7.89;100.00
5595;BME280;1003;48.002;7.788;2023-01-08T04:10:39;99085.38;;;7.82;100.00
5595;BME280;1003;48.002;7.788;2023-01-08T04:13:06;99102.88;;;7.79;100.00
5595;BME280;1003;48.002;7.788;2023-01-08T04:15:33;99127.06;;;7.77;100.00
5595;BME280;1003;48.002;7.788;2023-01-08T04:18:02;99149.59;;;7.82;100.00
5595;BME280;1003;48.002;7.788;2023-01-08T04:20:29;99157.94;;;7.81;100.00
5595;BME280;1003;48.002;7.788;2023-01-08T04:22:56;99179.59;;;7.82;100.00
5595;BME280;1003;48.002;7.788;2023-01-08T04:25:23;99163.75;;;7.89;100.00
5595;BME280;1003;48.002;7.788;2023-01-08T04:27:50;99155.41;;;7.88;100.00
5595;BME280;1003;48.002;7.788;2023-01-08T04:30:17;99161.25;;;7.83;100.00
5595;BME280;1003;48.002;7.788;2023-01-08T04:32:44;99167.94;;;7.87;100.00
5595;BME280;1003;48.002;7.788;2023-01-08T04:35:12;99180.44;;;7.95;100.00
5595;BME280;1003;48.002;7.788;2023-01-08T04:37:39;99207.16;;;7.99;100.00
5595;BME280;1003;48.002;7.788;2023-01-08T04:40:08;99215.47;;;7.96;100.00
5595;BME280;1003;48.002;7.788;2023-01-08T04:42:35;99226.34;;;8.04;100.00
5595;BME280;1003;48.002;7.788;2023-01-08T04:45:03;99246.38;;;8.03;100.00
5595;BME280;1003;48.002;7.788;2023-01-08T04:47:30;99259.72;;;8.22;100.00
5595;BME280;1003;48.002;7.788;2023-01-08T04:49:57;99259.72;;;8.15;100.00
5595;BME280;1003;48.002;7.788;2023-01-08T04:52:27;99266.38;;;8.23;100.00
5595;BME280;1003;48.002;7.788;2023-01-08T04:54:54;99267.22;;;8.23;100.00
5595;BME280;1003;48.002;7.788;2023-01-08T04:57:21;99271.44;;;8.38;100.00
5595;BME280;1003;48.002;7.788;2023-01-08T04:59:48;99258.09;;;8.36;100.00
5595;BME280;1003;48.002;7.788;2023-01-08T05:02:15;99270.63;;;8.42;100.00
5595;BME280;1003;48.002;7.788;2023-01-08T05:04:42;99269.78;;;8.40;100.00
5595;BME280;1003;48.002;7.788;2023-01-08T05:07:09;99262.28;;;8.37;100.00
5595;BME280;1003;48.002;7.788;2023-01-08T05:09:37;99260.59;;;8.36;100.00
5595;BME280;1003;48.002;7.788;2023-01-08T05:12:05;99255.56;;;8.34;100.00
5595;BME280;1003;48.002;7.788;2023-01-08T05:14:32;99219.66;;;8.31;100.00
5595;BME280;1003;48.002;7.788;2023-01-08T05:16:59;99224.66;;;8.32;100.00
5595;BME280;1003;48.002;7.788;2023-01-08T05:19:26;99226.34;;;8.29;100.00
5595;BME280;1003;48.002;7.788;2023-01-08T05:21:53;99235.56;;;8.37;100.00
5595;BME280;1003;48.002;7.788;2023-01-08T05:24:20;99238.03;;;8.30;100.00
5595;BME280;1003;48.002;7.788;2023-01-08T05:26:48;99248.88;;;8.27;100.00
5595;BME280;1003;48.002;7.788;2023-01-08T05:29:15;99257.25;;;8.29;100.00
5595;BME280;1003;48.002;7.788;2023-01-08T05:31:43;99263.91;;;8.27;100.00
5595;BME280;1003;48.002;7.788;2023-01-08T05:34:10;99271.41;;;8.21;100.00
5595;BME280;1003;48.002;7.788;2023-01-08T05:36:37;99283.94;;;8.21;100.00
5595;BME280;1003;48.002;7.788;2023-01-08T05:39:04;99267.25;;;8.19;100.00
5595;BME280;1003;48.002;7.788;2023-01-08T05:41:31;99279.75;;;8.19;100.00
5595;BME280;1003;48.002;7.788;2023-01-08T05:44:00;99273.91;;;8.21;100.00
5595;BME280;1003;48.002;7.788;2023-01-08T05:46:27;99277.25;;;8.22;100.00
5595;BME280;1003;48.002;7.788;2023-01-08T05:48:56;99283.09;;;8.24;100.00
5595;BME280;1003;48.002;7.788;2023-01-08T05:51:23;99278.09;;;8.25;100.00
5595;BME280;1003;48.002;7.788;2023-01-08T05:53:50;99278.09;;;8.24;100.00
5595;BME280;1003;48.002;7.788;2023-01-08T05:56:17;99273.06;;;8.27;100.00
5595;BME280;1003;48.002;7.788;2023-01-08T05:58:44;99284.75;;;8.26;100.00
5595;BME280;1003;48.002;7.788;2023-01-08T06:01:14;99283.94;;;8.33;100.00
5595;BME280;1003;48.002;7.788;2023-01-08T06:03:41;99288.97;;;8.43;100.00
5595;BME280;1003;48.002;7.788;2023-01-08T06:06:10;99295.66;;;8.40;100.00
5595;BME280;1003;48.002;7.788;2023-01-08T06:08:38;99286.47;;;8.38;100.00
5595;BME280;1003;48.002;7.788;2023-01-08T06:11:07;99287.31;;;8.41;100.00
5595;BME280;1003;48.002;7.788;2023-01-08T06:13:35;99288.97;;;8.43;100.00
5595;BME280;1003;48.002;7.788;2023-01-08T06:16:04;99290.66;;;8.48;100.00
5595;BME280;1003;48.002;7.788;2023-01-08T06:18:32;99291.50;;;8.53;100.00
5595;BME280;1003;48.002;7.788;2023-01-08T06:21:00;99304.00;;;8.58;100.00
5595;BME280;1003;48.002;7.788;2023-01-08T06:23:29;99299.00;;;8.59;100.00
5595;BME280;1003;48.002;7.788;2023-01-08T06:25:59;99304.84;;;8.61;100.00
5595;BME280;1003;48.002;7.788;2023-01-08T06:28:26;99304.84;;;8.61;100.00
5595;BME280;1003;48.002;7.788;2023-01-08T06:30:56;99301.50;;;8.62;100.00
5595;BME280;1003;48.002;7.788;2023-01-08T06:33:23;99313.19;;;8.76;100.00
5595;BME280;1003;48.002;7.788;2023-01-08T06:35:51;99313.19;;;8.79;100.00
5595;BME280;1003;48.002;7.788;2023-01-08T06:38:19;99315.69;;;8.80;100.00
5595;BME280;1003;48.002;7.788;2023-01-08T06:40:46;99315.69;;;8.79;100.00
5595;BME280;1003;48.002;7.788;2023-01-08T06:43:14;99315.72;;;8.77;100.00
5595;BME280;1003;48.002;7.788;2023-01-08T06:45:41;99316.53;;;8.78;100.00
5595;BME280;1003;48.002;7.788;2023-01-08T06:48:08;99316.53;;;8.78;100.00
5595;BME280;1003;48.002;7.788;2023-01-08T06:50:35;99322.41;;;8.83;100.00
5595;BME280;1003;48.002;7.788;2023-01-08T06:53:03;99315.69;;;8.91;100.00
5595;BME280;1003;48.002;7.788;2023-01-08T06:55:30;99313.16;;;8.97;100.00
5595;BME280;1003;48.002;7.788;2023-01-08T06:57:58;99304.81;;;8.86;100.00
5595;BME280;1003;48.002;7.788;2023-01-08T07:00:26;99298.16;;;8.88;100.00
5595;BME280;1003;48.002;7.788;2023-01-08T07:02:54;99289.78;;;8.92;100.00
5595;BME280;1003;48.002;7.788;2023-01-08T07:05:22;99284.78;;;8.95;100.00
5595;BME280;1003;48.002;7.788;2023-01-08T07:07:49;99273.06;;;8.86;100.00
5595;BME280;1003;48.002;7.788;2023-01-08T07:10:17;99272.25;;;8.89;100.00
5595;BME280;1003;48.002;7.788;2023-01-08T07:12:44;99273.03;;;9.08;100.00
5595;BME280;1003;48.002;7.788;2023-01-08T07:15:11;99263.88;;;8.96;100.00
5595;BME280;1003;48.002;7.788;2023-01-08T07:17:39;99263.06;;;8.99;100.00
5595;BME280;1003;48.002;7.788;2023-01-08T07:20:07;99255.53;;;8.96;100.00
5595;BME280;1003;48.002;7.788;2023-01-08T07:22:35;99248.81;;;8.93;100.00
5595;BME280;1003;48.002;7.788;2023-01-08T07:25:02;99254.69;;;8.97;100.00
5595;BME280;1003;48.002;7.788;2023-01-08T07:27:31;99238.81;;;8.82;100.00
5595;BME280;1003;48.002;7.788;2023-01-08T07:29:58;99240.53;;;8.77;100.00
5595;BME280;1003;48.002;7.788;2023-01-08T07:32:25;99224.66;;;8.80;100.00
5595;BME280;1003;48.002;7.788;2023-01-08T07:34:52;99222.94;;;8.94;100.00
5595;BME280;1003;48.002;7.788;2023-01-08T07:37:23;99218.78;;;8.88;100.00
5595;BME280;1003;48.002;7.788;2023-01-08T07:39:50;99212.09;;;8.93;100.00
5595;BME280;1003;48.002;7.788;2023-01-08T07:42:18;99211.22;;;8.98;100.00
5595;BME280;1003;48.002;7.788;2023-01-08T07:44:47;99207.91;;;8.99;100.00
5595;BME280;1003;48.002;7.788;2023-01-08T07:47:14;99206.22;;;8.94;100.00
5595;BME280;1003;48.002;7.788;2023-01-08T07:49:41;99205.38;;;9.05;100.00
5595;BME280;1003;48.002;7.788;2023-01-08T07:52:08;99202.00;;;9.03;100.00
5595;BME280;1003;48.002;7.788;2023-01-08T07:54:35;99201.19;;;9.02;100.00
5595;BME280;1003;48.002;7.788;2023-01-08T07:57:02;99202.88;;;9.00;100.00
5595;BME280;1003;48.002;7.788;2023-01-08T07:59:29;99197.81;;;9.03;100.00
5595;BME280;1003;48.002;7.788;2023-01-08T08:01:58;99189.47;;;9.03;100.00
5595;BME280;1003;48.002;7.788;2023-01-08T08:04:24;99191.16;;;9.02;100.00
5595;BME280;1003;48.002;7.788;2023-01-08T08:06:53;99182.75;;;9.12;100.00
5595;BME280;1003;48.002;7.788;2023-01-08T08:09:20;99181.06;;;9.17;100.00
5595;BME280;1003;48.002;7.788;2023-01-08T08:11:47;99191.91;;;9.27;100.00
5595;BME280;1003;48.002;7.788;2023-01-08T08:14:14;99187.72;;;9.28;100.00
5595;BME280;1003;48.002;7.788;2023-01-08T08:16:41;99179.31;;;9.33;100.00
5595;BME280;1003;48.002;7.788;2023-01-08T08:19:11;99177.59;;;9.48;100.00
5595;BME280;1003;48.002;7.788;2023-01-08T08:21:38;99175.00;;;9.57;100.00
5595;BME280;1003;48.002;7.788;2023-01-08T08:24:06;99175.03;;;9.51;100.00
5595;BME280;1003;48.002;7.788;2023-01-08T08:26:33;99167.53;;;9.49;100.00
5595;BME280;1003;48.002;7.788;2023-01-08T08:29:00;99169.94;;;9.61;100.00
5595;BME280;1003;48.002;7.788;2023-01-08T08:31:27;99152.38;;;9.64;100.00
5595;BME280;1003;48.002;7.788;2023-01-08T08:33:54;99144.84;;;9.63;100.00
5595;BME280;1003;48.002;7.788;2023-01-08T08:36:27;99137.31;;;9.64;100.00
5595;BME280;1003;48.002;7.788;2023-01-08T08:38:54;99142.34;;;9.64;100.00
5595;BME280;1003;48.002;7.788;2023-01-08T08:41:21;99143.97;;;9.68;100.00
5595;BME280;1003;48.002;7.788;2023-01-08T08:43:48;99135.66;;;9.63;100.00
5595;BME280;1003;48.002;7.788;2023-01-08T08:46:16;99117.22;;;9.67;100.00
5595;BME280;1003;48.002;7.788;2023-01-08T08:48:43;99110.53;;;9.69;100.00
5595;BME280;1003;48.002;7.788;2023-01-08T08:51:11;99104.72;;;9.60;100.00
5595;BME280;1003;48.002;7.788;2023-01-08T08:53:39;99091.34;;;9.59;100.00
5595;BME280;1003;48.002;7.788;2023-01-08T08:56:06;99095.56;;;9.59;100.00
5595;BME280;1003;48.002;7.788;2023-01-08T08:58:34;99096.38;;;9.59;100.00
5595;BME280;1003;48.002;7.788;2023-01-08T09:01:02;99087.19;;;9.57;100.00
5595;BME280;1003;48.002;7.788;2023-01-08T09:03:30;99096.34;;;9.64;100.00
5595;BME280;1003;48.002;7.788;2023-01-08T09:05:57;99089.63;;;9.63;100.00
5595;BME280;1003;48.002;7.788;2023-01-08T09:08:24;99079.59;;;9.63;100.00
5595;BME280;1003;48.002;7.788;2023-01-08T09:10:53;99082.97;;;9.60;100.00
5595;BME280;1003;48.002;7.788;2023-01-08T09:13:20;99087.94;;;9.66;100.00
5595;BME280;1003;48.002;7.788;2023-01-08T09:15:47;99087.19;;;9.57;100.00
5595;BME280;1003;48.002;7.788;2023-01-08T09:18:14;99083.81;;;9.64;100.00
5595;BME280;1003;48.002;7.788;2023-01-08T09:20:42;99102.00;;;9.87;100.00
5595;BME280;1003;48.002;7.788;2023-01-08T09:23:09;99098.44;;;10.10;100.00
5595;BME280;1003;48.002;7.788;2023-01-08T09:25:36;99081.13;;;9.79;100.00
5595;BME280;1003;48.002;7.788;2023-01-08T09:28:06;99075.38;;;9.71;100.00
5595;BME280;1003;48.002;7.788;2023-01-08T09:30:34;99065.41;;;9.63;100.00
5595;BME280;1003;48.002;7.788;2023-01-08T09:33:03;99065.41;;;9.62;100.00
5595;BME280;1003;48.002;7.788;2023-01-08T09:35:32;99066.28;;;9.56;100.00
5595;BME280;1003;48.002;7.788;2023-01-08T09:37:59;99062.09;;;9.58;100.00
5595;BME280;1003;48.002;7.788;2023-01-08T09:40:34;99066.28;;;9.59;100.00
5595;BME280;1003;48.002;7.788;2023-01-08T09:43:04;99071.19;;;9.68;100.00
5595;BME280;1003;48.002;7.788;2023-01-08T09:45:34;99061.91;;;9.78;100.00
5595;BME280;1003;48.002;7.788;2023-01-08T09:48:06;99054.47;;;9.67;100.00
5595;BME280;1003;48.002;7.788;2023-01-08T09:50:38;99047.75;;;9.72;100.00
5595;BME280;1003;48.002;7.788;2023-01-08T09:53:12;99037.75;;;9.68;100.00
5595;BME280;1003;48.002;7.788;2023-01-08T09:55:41;99049.31;;;9.84;100.00
5595;BME280;1003;48.002;7.788;2023-01-08T09:58:22;99042.59;;;9.88;100.00
5595;BME280;1003;48.002;7.788;2023-01-08T10:00:50;99045.16;;;9.82;100.00
5595;BME280;1003;48.002;7.788;2023-01-08T10:03:18;99033.44;;;9.79;100.00
5595;BME280;1003;48.002;7.788;2023-01-08T10:05:45;99045.06;;;9.92;100.00
5595;BME280;1003;48.002;7.788;2023-01-08T10:08:13;99034.19;;;9.92;100.00
5595;BME280;1003;48.002;7.788;2023-01-08T10:10:41;99030.78;;;9.94;100.00
5595;BME280;1003;48.002;7.788;2023-01-08T10:13:13;99025.00;;;9.89;100.00
5595;BME280;1003;48.002;7.788;2023-01-08T10:15:40;99025.81;;;9.91;100.00
5595;BME280;1003;48.002;7.788;2023-01-08T10:18:12;99022.44;;;9.95;100.00
5595;BME280;1003;48.002;7.788;2023-01-08T10:20:40;99009.09;;;9.90;100.00
5595;BME280;1003;48.002;7.788;2023-01-08T10:23:10;98998.13;;;9.99;100.00
5595;BME280;1003;48.002;7.788;2023-01-08T10:25:51;99002.38;;;9.95;100.00
5595;BME280;1003;48.002;7.788;2023-01-08T10:28:23;98994.84;;;9.92;100.00
5595;BME280;1003;48.002;7.788;2023-01-08T10:30:52;98996.59;;;9.86;100.00
5595;BME280;1003;48.002;7.788;2023-01-08T10:33:25;98996.38;;;10.07;100.00
5595;BME280;1003;48.002;7.788;2023-01-08T10:35:59;98979.66;;;10.03;100.00
5595;BME280;1003;48.002;7.788;2023-01-08T10:38:31;98980.41;;;10.13;100.00
5595;BME280;1003;48.002;7.788;2023-01-08T10:41:02;98969.56;;;10.06;100.00
5595;BME280;1003;48.002;7.788;2023-01-08T10:43:36;98960.28;;;10.14;100.00
5595;BME280;1003;48.002;7.788;2023-01-08T10:46:16;98946.94;;;10.11;100.00
5595;BME280;1003;48.002;7.788;2023-01-08T10:48:52;98933.66;;;10.01;100.00
5595;BME280;1003;48.002;7.788;2023-01-08T10:51:22;98940.22;;;10.11;100.00
5595;BME280;1003;48.002;7.788;2023-01-08T10:53:51;98941.22;;;9.98;100.00
5595;BME280;1003;48.002;7.788;2023-01-08T10:56:21;98938.69;;;10.01;100.00
5595;BME280;1003;48.002;7.788;2023-01-08T10:58:51;98950.28;;;10.10;100.00
5595;BME280;1003;48.002;7.788;2023-01-08T11:01:23;98934.25;;;10.21;100.00
5595;BME280;1003;48.002;7.788;2023-01-08T11:03:52;98925.81;;;10.29;100.00
5595;BME280;1003;48.002;7.788;2023-01-08T11:06:24;98935.91;;;10.25;100.00
5595;BME280;1003;48.002;7.788;2023-01-08T11:08:54;98935.91;;;10.21;100.00
5595;BME280;1003;48.002;7.788;2023-01-08T11:11:23;98940.75;;;10.38;100.00
5595;BME280;1003;48.002;7.788;2023-01-08T11:14:01;98924.91;;;10.34;100.00
5595;BME280;1003;48.002;7.788;2023-01-08T11:16:32;98916.50;;;10.37;100.00
5595;BME280;1003;48.002;7.788;2023-01-08T11:19:00;98914.81;;;10.39;100.00
5595;BME280;1003;48.002;7.788;2023-01-08T11:21:30;98908.72;;;10.54;100.00
5595;BME280;1003;48.002;7.788;2023-01-08T11:24:10;98894.34;;;10.63;100.00
5595;BME280;1003;48.002;7.788;2023-01-08T11:26:46;98904.19;;;10.75;100.00
5595;BME280;1003;48.002;7.788;2023-01-08T11:29:21;98892.28;;;10.88;100.00
5595;BME280;1003;48.002;7.788;2023-01-08T11:31:53;98883.25;;;10.76;100.00
5595;BME280;1003;48.002;7.788;2023-01-08T11:34:30;98893.13;;;10.89;100.00
5595;BME280;1003;48.002;7.788;2023-01-08T11:37:08;98879.88;;;10.77;100.00
5595;BME280;1003;48.002;7.788;2023-01-08T11:39:37;98875.72;;;10.76;100.00
5595;BME280;1003;48.002;7.788;2023-01-08T11:42:22;98864.94;;;10.68;100.00
5595;BME280;1003;48.002;7.788;2023-01-08T11:45:12;98875.94;;;10.60;100.00
5595;BME280;1003;48.002;7.788;2023-01-08T11:48:18;98878.41;;;10.64;100.00
5595;BME280;1003;48.002;7.788;2023-01-08T11:51:04;98878.50;;;10.58;100.00
5595;BME280;1003;48.002;7.788;2023-01-08T11:53:44;98863.41;;;10.58;100.00
5595;BME280;1003;48.002;7.788;2023-01-08T11:56:27;98861.81;;;10.56;100.00
5595;BME280;1003;48.002;7.788;2023-01-08T11:59:13;98854.28;;;10.52;100.00
5595;BME280;1003;48.002;7.788;2023-01-08T12:01:57;98861.16;;;10.41;100.00
5595;BME280;1003;48.002;7.788;2023-01-08T12:05:02;98864.53;;;10.40;100.00
5595;BME280;1003;48.002;7.788;2023-01-08T12:07:43;98876.19;;;10.44;100.00
5595;BME280;1003;48.002;7.788;2023-01-08T12:10:22;98879.53;;;10.45;100.00
5595;BME280;1003;48.002;7.788;2023-01-08T12:13:04;98882.78;;;10.51;100.00
5595;BME280;1003;48.002;7.788;2023-01-08T12:15:50;98863.81;;;10.34;100.00
5595;BME280;1003;48.002;7.788;2023-01-08T12:18:41;98874.66;;;10.36;100.00
5595;BME280;1003;48.002;7.788;2023-01-08T12:21:22;98871.44;;;10.24;100.00
5595;BME280;1003;48.002;7.788;2023-01-08T12:24:21;98860.78;;;10.07;100.00
5595;BME280;1003;48.002;7.788;2023-01-08T12:27:04;98880.06;;;10.04;100.00
5595;BME280;1003;48.002;7.788;2023-01-08T12:29:56;98874.31;;;9.95;100.00
5595;BME280;1003;48.002;7.788;2023-01-08T12:32:29;98877.72;;;9.91;100.00
5595;BME280;1003;48.002;7.788;2023-01-08T12:35:09;98877.59;;;10.02;100.00
5595;BME280;1003;48.002;7.788;2023-01-08T12:37:45;98871.69;;;10.05;100.00
5595;BME280;1003;48.002;7.788;2023-01-08T12:40:21;98872.66;;;9.93;100.00
5595;BME280;1003;48.002;7.788;2023-01-08T12:42:50;98870.16;;;9.93;100.00
5595;BME280;1003;48.002;7.788;2023-01-08T12:45:25;98856.13;;;9.80;100.00
5595;BME280;1003;48.002;7.788;2023-01-08T12:48:02;98867.19;;;9.63;100.00
5595;BME280;1003;48.002;7.788;2023-01-08T12:50:56;98869.72;;;9.60;100.00
5595;BME280;1003;48.002;7.788;2023-01-08T12:53:39;98888.00;;;9.70;100.00
5595;BME280;1003;48.002;7.788;2023-01-08T12:56:14;98874.69;;;9.65;100.00
5595;BME280;1003;48.002;7.788;2023-01-08T12:59:09;98871.47;;;9.52;100.00
5595;BME280;1003;48.002;7.788;2023-01-08T13:01:45;98883.19;;;9.52;100.00
5595;BME280;1003;48.002;7.788;2023-01-08T13:04:13;98892.25;;;9.62;100.00
5595;BME280;1003;48.002;7.788;2023-01-08T13:07:02;98881.44;;;9.57;100.00
5595;BME280;1003;48.002;7.788;2023-01-08T13:09:31;98877.47;;;9.39;100.00
5595;BME280;1003;48.002;7.788;2023-01-08T13:11:59;98889.13;;;9.43;100.00
5595;BME280;1003;48.002;7.788;2023-01-08T13:14:27;98890.09;;;9.30;100.00
5595;BME280;1003;48.002;7.788;2023-01-08T13:17:04;98900.94;;;9.30;100.00
5595;BME280;1003;48.002;7.788;2023-01-08T13:19:39;98895.13;;;9.31;100.00
5595;BME280;1003;48.002;7.788;2023-01-08T13:22:27;98897.50;;;9.40;100.00
5595;BME280;1003;48.002;7.788;2023-01-08T13:25:30;98901.63;;;9.46;100.00
5595;BME280;1003;48.002;7.788;2023-01-08T13:27:59;98899.88;;;9.54;100.00
5595;BME280;1003;48.002;7.788;2023-01-08T13:30:44;98908.19;;;9.58;100.00
5595;BME280;1003;48.002;7.788;2023-01-08T13:33:34;98905.78;;;9.50;100.00
5595;BME280;1003;48.002;7.788;2023-01-08T13:36:23;98898.31;;;9.44;100.00
5595;BME280;1003;48.002;7.788;2023-01-08T13:39:17;98905.84;;;9.41;100.00
5595;BME280;1003;48.002;7.788;2023-01-08T13:41:59;98915.94;;;9.35;100.00